createdAt,value
2023-02-06T00:01:52.233Z,19.00
2023-02-06T00:04:20.597Z,18.25
2023-02-06T00:06:49.007Z,21.00
2023-02-06T00:09:17.401Z,18.75
2023-02-06T00:11:45.689Z,21.00
2023-02-06T00:14:13.972Z,18.50
2023-02-06T00:16:42.266Z,19.00
2023-02-06T00:19:10.602Z,19.75
2023-02-06T00:21:38.945Z,18.75
2023-02-06T00:24:07.867Z,20.00
2023-02-06T00:26:36.236Z,19.00
2023-02-06T00:29:04.857Z,19.00
2023-02-06T00:31:33.195Z,20.00
2023-02-06T00:34:01.599Z,21.25
2023-02-06T00:36:29.901Z,19.25
2023-02-06T00:38:58.307Z,19.00
2023-02-06T00:41:26.624Z,19.00
2023-02-06T00:43:54.944Z,21.00
2023-02-06T00:46:23.277Z,21.00
2023-02-06T00:48:51.693Z,21.00
2023-02-06T00:51:20.110Z,20.75
2023-02-06T00:53:50.989Z,21.75
2023-02-06T00:56:19.830Z,19.75
2023-02-06T00:58:48.129Z,18.25
2023-02-06T01:01:16.430Z,19.25
2023-02-06T01:03:44.936Z,20.75
2023-02-06T01:06:13.207Z,21.75
2023-02-06T01:08:41.561Z,20.25
2023-02-06T01:11:27.086Z,21.25
2023-02-06T01:13:55.829Z,20.50
2023-02-06T01:16:26.200Z,21.75
2023-02-06T01:18:55.123Z,22.75
2023-02-06T01:21:25.788Z,22.00
2023-02-06T01:23:55.831Z,22.75
2023-02-06T01:26:27.878Z,23.00
2023-02-06T01:28:56.944Z,21.75
2023-02-06T01:31:28.663Z,21.00
2023-02-06T01:33:59.264Z,22.00
2023-02-06T01:36:28.383Z,24.00
2023-02-06T01:38:56.707Z,22.25
2023-02-06T01:41:25.250Z,24.50
2023-02-06T01:44:14.424Z,22.50
2023-02-06T01:46:45.621Z,24.75
2023-02-06T01:49:19.798Z,24.75
2023-02-06T01:51:50.512Z,23.50
2023-02-06T01:54:19.186Z,22.00
2023-02-06T01:56:56.411Z,23.50
2023-02-06T01:59:26.663Z,23.00
2023-02-06T02:01:55.217Z,24.00
2023-02-06T02:04:28.022Z,23.25
2023-02-06T02:07:26.503Z,23.50
2023-02-06T02:09:54.868Z,23.00
2023-02-06T02:12:23.154Z,23.50
2023-02-06T02:14:54.854Z,22.00
2023-02-06T02:17:56.393Z,22.50
2023-02-06T02:21:01.110Z,22.25
2023-02-06T02:23:52.552Z,21.75
2023-02-06T02:26:31.123Z,20.00
2023-02-06T02:29:34.737Z,21.00
2023-02-06T02:32:05.688Z,18.75
2023-02-06T02:35:06.385Z,21.00
2023-02-06T02:37:43.559Z,19.00
2023-02-06T02:40:17.940Z,21.25
2023-02-06T02:43:03.456Z,21.75
2023-02-06T02:45:47.737Z,23.00
2023-02-06T02:48:24.149Z,22.00
2023-02-06T02:50:55.416Z,21.00
2023-02-06T02:53:26.740Z,22.00
2023-02-06T02:55:55.410Z,21.75
2023-02-06T02:58:27.891Z,21.50
2023-02-06T03:01:03.491Z,20.50
2023-02-06T03:03:35.498Z,21.25
2023-02-06T03:06:23.890Z,21.75
2023-02-06T03:09:06.097Z,19.75
2023-02-06T03:11:39.379Z,21.75
2023-02-06T03:14:16.600Z,20.75
2023-02-06T03:16:52.264Z,21.25
2023-02-06T03:19:34.349Z,21.25
2023-02-06T03:22:04.120Z,22.50
2023-02-06T03:24:39.756Z,21.50
2023-02-06T03:27:18.021Z,20.75
2023-02-06T03:29:50.302Z,21.00
2023-02-06T03:32:25.030Z,22.00
2023-02-06T03:35:08.179Z,22.00
2023-02-06T03:37:38.585Z,22.75
2023-02-06T03:40:08.916Z,22.25
2023-02-06T03:42:42.462Z,22.25
2023-02-06T03:45:30.021Z,23.00
2023-02-06T03:48:22.753Z,20.75
2023-02-06T03:50:55.253Z,23.00
2023-02-06T03:53:26.576Z,24.00
2023-02-06T03:56:00.170Z,22.00
2023-02-06T03:58:28.487Z,21.75
2023-02-06T04:00:56.958Z,21.50
2023-02-06T04:03:25.745Z,22.00
2023-02-06T04:05:54.047Z,22.75
2023-02-06T04:08:22.448Z,22.00
2023-02-06T04:10:50.775Z,23.25
2023-02-06T04:13:19.092Z,22.00
2023-02-06T04:15:47.401Z,24.00
2023-02-06T04:18:15.711Z,21.25
2023-02-06T04:20:44.064Z,23.00
2023-02-06T04:23:12.364Z,22.25
2023-02-06T04:25:40.690Z,24.00
2023-02-06T04:28:09.262Z,23.75
2023-02-06T04:30:37.602Z,23.75
2023-02-06T04:33:06.325Z,23.50
2023-02-06T04:35:34.941Z,22.00
2023-02-06T04:38:03.504Z,21.75
2023-02-06T04:40:31.974Z,22.75
2023-02-06T04:43:00.354Z,19.75
2023-02-06T04:45:28.714Z,21.00
2023-02-06T04:47:59.168Z,20.50
2023-02-06T04:50:32.196Z,19.75
2023-02-06T04:53:00.542Z,21.00
2023-02-06T04:55:29.127Z,21.00
2023-02-06T04:57:57.420Z,18.50
2023-02-06T05:00:25.794Z,20.25
2023-02-06T05:02:54.121Z,19.50
2023-02-06T05:05:22.457Z,19.25
2023-02-06T05:07:50.803Z,19.50
2023-02-06T05:10:19.298Z,18.75
2023-02-06T05:12:48.180Z,18.00
2023-02-06T05:15:16.496Z,16.50
2023-02-06T05:17:45.007Z,17.25
2023-02-06T05:20:13.401Z,17.25
2023-02-06T05:22:41.774Z,15.50
2023-02-06T05:25:10.178Z,15.50
2023-02-06T05:27:38.540Z,18.25
2023-02-06T05:30:07.167Z,17.00
2023-02-06T05:32:35.539Z,18.00
2023-02-06T05:35:03.844Z,16.25
2023-02-06T05:37:32.147Z,18.25
2023-02-06T05:40:00.753Z,16.50
2023-02-06T05:42:29.115Z,17.00
2023-02-06T05:44:57.493Z,16.00
2023-02-06T05:47:26.881Z,17.00
2023-02-06T05:49:55.289Z,14.75
2023-02-06T05:52:23.610Z,14.50
2023-02-06T05:54:51.898Z,15.75
2023-02-06T05:57:20.310Z,15.00
2023-02-06T05:59:48.682Z,16.00
2023-02-06T06:02:17.372Z,16.25
2023-02-06T06:04:45.895Z,15.50
2023-02-06T06:07:14.357Z,15.50
2023-02-06T06:09:42.647Z,15.25
2023-02-06T06:12:11.102Z,16.00
2023-02-06T06:14:39.424Z,14.25
2023-02-06T06:17:07.941Z,15.25
2023-02-06T06:19:36.254Z,15.50
2023-02-06T06:22:04.556Z,11.75
2023-02-06T06:24:32.860Z,14.50
2023-02-06T06:27:01.163Z,13.50
2023-02-06T06:29:29.560Z,15.50
2023-02-06T06:31:57.923Z,12.50
2023-02-06T06:34:28.378Z,13.00
2023-02-06T06:36:56.670Z,13.25
2023-02-06T06:39:25.024Z,12.75
2023-02-06T06:41:53.307Z,14.25
2023-02-06T06:44:21.781Z,13.00
2023-02-06T06:46:50.106Z,13.50
2023-02-06T06:49:18.578Z,12.00
2023-02-06T06:51:46.875Z,12.50
2023-02-06T06:54:16.391Z,11.25
2023-02-06T06:56:44.730Z,12.25
2023-02-06T06:59:13.044Z,15.50
2023-02-06T07:01:41.350Z,16.50
2023-02-06T07:04:09.826Z,15.25
2023-02-06T07:06:38.187Z,26.00
2023-02-06T07:09:06.512Z,19.25
2023-02-06T07:11:34.881Z,12.50
2023-02-06T07:14:03.931Z,14.25
2023-02-06T07:16:32.313Z,11.75
2023-02-06T07:19:00.667Z,13.50
2023-02-06T07:21:29.033Z,12.00
2023-02-06T07:23:57.557Z,12.25
2023-02-06T07:26:25.843Z,12.50
2023-02-06T07:28:54.185Z,12.00
2023-02-06T07:31:22.586Z,11.50
2023-02-06T07:33:50.969Z,11.75
2023-02-06T07:36:19.467Z,10.50
2023-02-06T07:38:47.808Z,11.50
2023-02-06T07:41:16.976Z,9.75
2023-02-06T07:43:45.629Z,9.50
2023-02-06T07:46:14.065Z,12.25
2023-02-06T07:48:43.495Z,12.50
2023-02-06T07:51:11.797Z,11.00
2023-02-06T07:53:40.216Z,11.50
2023-02-06T07:56:14.187Z,11.75
2023-02-06T07:58:42.709Z,13.50
2023-02-06T08:01:11.498Z,14.50
2023-02-06T08:03:39.996Z,13.50
2023-02-06T08:06:16.830Z,13.00
2023-02-06T08:08:46.125Z,13.00
2023-02-06T08:11:17.095Z,13.75
2023-02-06T08:13:46.249Z,15.75
2023-02-06T08:16:18.428Z,15.25
2023-02-06T08:18:47.589Z,13.25
2023-02-06T08:21:19.270Z,12.00
2023-02-06T08:23:47.989Z,13.00
2023-02-06T08:26:19.502Z,14.00
2023-02-06T08:28:51.435Z,12.00
2023-02-06T08:31:21.254Z,12.75
2023-02-06T08:33:50.371Z,13.00
2023-02-06T08:36:21.150Z,11.75
2023-02-06T08:38:50.499Z,11.75
2023-02-06T08:41:27.791Z,13.50
2023-02-06T08:43:58.656Z,11.75
2023-02-06T08:46:30.050Z,13.00
2023-02-06T08:49:00.303Z,11.75
2023-02-06T08:51:29.411Z,11.75
2023-02-06T08:54:03.244Z,12.50
2023-02-06T08:56:33.323Z,10.75
2023-02-06T08:59:02.102Z,12.00
2023-02-06T09:01:33.852Z,11.00
2023-02-06T09:04:05.584Z,11.50
2023-02-06T09:06:36.017Z,9.75
2023-02-06T09:09:05.676Z,13.00
2023-02-06T09:11:34.431Z,12.50
2023-02-06T09:14:05.006Z,10.50
2023-02-06T09:16:38.641Z,11.50
2023-02-06T09:19:07.598Z,10.75
2023-02-06T09:21:36.990Z,10.50
2023-02-06T09:24:08.502Z,13.25
2023-02-06T09:26:58.174Z,10.75
2023-02-06T09:29:29.621Z,13.75
2023-02-06T09:32:01.026Z,12.50
2023-02-06T09:34:29.425Z,13.00
2023-02-06T09:36:58.685Z,12.25
2023-02-06T09:39:27.636Z,16.00
2023-02-06T09:42:09.074Z,16.50
2023-02-06T09:44:49.792Z,15.00
2023-02-06T09:47:47.237Z,12.75
2023-02-06T09:50:27.159Z,14.25
2023-02-06T09:53:09.605Z,12.25
2023-02-06T09:55:45.836Z,13.25
2023-02-06T09:58:32.220Z,9.50
2023-02-06T10:01:04.471Z,13.00
2023-02-06T10:04:13.930Z,13.00
2023-02-06T10:06:47.721Z,11.25
2023-02-06T10:09:29.626Z,11.25
2023-02-06T10:12:03.266Z,11.75
2023-02-06T10:14:57.452Z,11.50
2023-02-06T10:17:35.146Z,12.25
2023-02-06T10:20:06.890Z,12.00
2023-02-06T10:22:43.988Z,11.00
2023-02-06T10:25:31.574Z,9.75
2023-02-06T10:28:16.114Z,11.75
2023-02-06T10:31:06.505Z,11.75
2023-02-06T10:33:44.020Z,10.75
2023-02-06T10:36:39.262Z,12.25
2023-02-06T10:39:28.920Z,12.25
2023-02-06T10:42:27.989Z,11.50
2023-02-06T10:45:26.591Z,12.50
2023-02-06T10:48:19.180Z,10.75
2023-02-06T10:50:52.185Z,10.00
2023-02-06T10:53:42.834Z,11.75
2023-02-06T10:56:15.188Z,11.50
2023-02-06T10:59:06.975Z,11.75
2023-02-06T11:01:41.068Z,11.00
2023-02-06T11:04:21.143Z,12.75
2023-02-06T11:06:49.443Z,11.25
2023-02-06T11:09:17.775Z,15.50
2023-02-06T11:11:52.227Z,10.25
2023-02-06T11:14:28.958Z,11.00
2023-02-06T11:17:00.750Z,12.00
2023-02-06T11:19:45.477Z,12.50
2023-02-06T11:22:27.441Z,12.25
2023-02-06T11:25:08.482Z,10.50
2023-02-06T11:27:37.794Z,13.25
2023-02-06T11:30:23.100Z,14.75
2023-02-06T11:33:04.431Z,12.75
2023-02-06T11:35:39.903Z,12.25
2023-02-06T11:38:17.295Z,13.00
2023-02-06T11:41:02.267Z,13.75
2023-02-06T11:43:48.485Z,15.00
2023-02-06T11:46:25.021Z,14.00
2023-02-06T11:49:00.449Z,15.75
2023-02-06T11:51:49.341Z,15.50
2023-02-06T11:54:54.695Z,13.50
2023-02-06T11:57:26.348Z,13.50
2023-02-06T12:00:00.647Z,13.50
2023-02-06T12:02:30.786Z,14.75
2023-02-06T12:05:17.585Z,13.50
2023-02-06T12:07:51.167Z,13.25
2023-02-06T12:10:21.423Z,13.50
2023-02-06T12:12:54.972Z,12.50
2023-02-06T12:15:45.388Z,14.25
2023-02-06T12:18:26.504Z,16.50
2023-02-06T12:20:56.527Z,17.50
2023-02-06T12:23:49.750Z,17.25
2023-02-06T12:26:21.685Z,19.25
2023-02-06T12:29:07.078Z,21.25
2023-02-06T12:31:46.922Z,19.00
2023-02-06T12:34:26.881Z,20.25
2023-02-06T12:37:15.252Z,18.25
2023-02-06T12:39:44.794Z,18.00
2023-02-06T12:42:28.184Z,20.50
2023-02-06T12:45:08.030Z,22.00
2023-02-06T12:47:40.151Z,22.50
2023-02-06T12:50:15.764Z,23.00
2023-02-06T12:53:01.795Z,21.00
2023-02-06T12:55:39.788Z,21.00
2023-02-06T12:58:37.879Z,21.00
2023-02-06T13:01:27.883Z,22.25
2023-02-06T13:04:03.806Z,22.75
2023-02-06T13:06:54.100Z,21.75
2023-02-06T13:09:33.395Z,22.50
2023-02-06T13:12:15.307Z,23.75
2023-02-06T13:14:55.309Z,21.75
2023-02-06T13:17:39.174Z,22.25
2023-02-06T13:20:10.381Z,21.50
2023-02-06T13:22:38.949Z,22.25
2023-02-06T13:25:32.011Z,22.50
2023-02-06T13:28:02.442Z,21.75
2023-02-06T13:30:30.861Z,21.50
2023-02-06T13:33:22.265Z,22.25
2023-02-06T13:36:04.817Z,22.75
2023-02-06T13:38:36.184Z,23.75
2023-02-06T13:41:16.887Z,24.25
2023-02-06T13:44:28.012Z,23.50
2023-02-06T13:47:30.367Z,22.25
2023-02-06T13:50:28.158Z,20.75
2023-02-06T13:53:11.453Z,22.00
2023-02-06T13:55:55.000Z,21.50
2023-02-06T13:58:40.667Z,21.25
2023-02-06T14:01:17.084Z,23.25
2023-02-06T14:03:50.998Z,23.25
2023-02-06T14:06:37.366Z,22.00
2023-02-06T14:09:52.301Z,23.00
2023-02-06T14:12:40.280Z,21.75
2023-02-06T14:15:38.498Z,22.25
2023-02-06T14:18:28.484Z,22.75
2023-02-06T14:21:14.971Z,22.00
2023-02-06T14:23:58.277Z,22.50
2023-02-06T14:26:29.427Z,21.50
2023-02-06T14:29:04.595Z,19.75
2023-02-06T14:31:35.576Z,20.25
2023-02-06T14:34:25.810Z,21.00
2023-02-06T14:37:31.047Z,22.50
2023-02-06T14:40:07.514Z,21.50
2023-02-06T14:42:43.337Z,22.00
2023-02-06T14:45:42.395Z,22.00
2023-02-06T14:48:39.345Z,22.00
2023-02-06T14:51:09.311Z,19.25
2023-02-06T14:53:40.061Z,22.25
2023-02-06T14:56:17.862Z,20.25
2023-02-06T14:58:47.356Z,20.75
2023-02-06T15:01:29.912Z,20.00
2023-02-06T15:04:13.548Z,22.75
2023-02-06T15:06:45.972Z,21.25
2023-02-06T15:09:30.896Z,21.00
2023-02-06T15:12:02.465Z,21.00
2023-02-06T15:14:35.608Z,20.00
2023-02-06T15:17:04.456Z,20.25
2023-02-06T15:19:36.479Z,20.50
2023-02-06T15:22:09.751Z,21.75
2023-02-06T15:24:56.385Z,20.75
2023-02-06T15:27:58.667Z,20.75
2023-02-06T15:30:27.764Z,20.25
2023-02-06T15:32:57.159Z,20.75
2023-02-06T15:35:29.925Z,21.75
2023-02-06T15:38:08.412Z,22.25
2023-02-06T15:40:44.252Z,22.25
2023-02-06T15:43:20.880Z,23.25
2023-02-06T15:45:52.372Z,23.75
2023-02-06T15:48:42.667Z,24.75
2023-02-06T15:51:28.910Z,24.50
2023-02-06T15:54:07.995Z,22.75
2023-02-06T15:56:41.290Z,23.75
2023-02-06T15:59:25.183Z,22.75
2023-02-06T16:01:56.659Z,23.00
2023-02-06T16:04:38.248Z,22.50
2023-02-06T16:07:06.571Z,22.00
2023-02-06T16:09:50.858Z,23.75
2023-02-06T16:12:20.040Z,22.00
2023-02-06T16:15:02.408Z,21.75
2023-02-06T16:17:42.169Z,21.75
2023-02-06T16:20:48.902Z,23.00
2023-02-06T16:23:24.922Z,21.75
2023-02-06T16:26:26.128Z,23.50
2023-02-06T16:29:00.143Z,22.25
2023-02-06T16:31:30.960Z,21.75
2023-02-06T16:34:06.397Z,21.75
2023-02-06T16:36:34.868Z,23.50
2023-02-06T16:39:04.652Z,22.75
2023-02-06T16:41:36.209Z,21.75
2023-02-06T16:44:11.536Z,22.25
2023-02-06T16:46:40.112Z,21.50
2023-02-06T16:49:20.121Z,22.75
2023-02-06T16:51:51.047Z,22.00
2023-02-06T16:54:29.300Z,22.75
2023-02-06T16:57:04.609Z,21.50
2023-02-06T16:59:32.885Z,21.50
2023-02-06T17:02:01.268Z,24.50
2023-02-06T17:04:29.585Z,22.50
2023-02-06T17:06:58.588Z,23.75
2023-02-06T17:09:27.570Z,25.25
2023-02-06T17:11:56.754Z,23.50
2023-02-06T17:14:26.157Z,22.75
2023-02-06T17:16:55.788Z,22.75
2023-02-06T17:19:26.665Z,23.25
2023-02-06T17:21:54.974Z,23.25
2023-02-06T17:24:23.332Z,21.50
2023-02-06T17:26:51.617Z,22.50
2023-02-06T17:29:19.920Z,23.50
2023-02-06T17:31:48.380Z,22.25
2023-02-06T17:34:16.809Z,23.00
2023-02-06T17:36:46.144Z,22.00
2023-02-06T17:39:14.917Z,24.00
2023-02-06T17:41:43.208Z,21.50
2023-02-06T17:44:12.732Z,24.00
2023-02-06T17:46:41.444Z,23.00
2023-02-06T17:49:10.188Z,22.00
2023-02-06T17:51:41.692Z,21.25
2023-02-06T17:54:11.141Z,24.00
2023-02-06T17:56:39.988Z,23.25
2023-02-06T17:59:08.491Z,24.00
2023-02-06T18:01:36.924Z,22.25
2023-02-06T18:04:05.558Z,24.75
2023-02-06T18:06:37.256Z,23.50
2023-02-06T18:09:06.434Z,24.00
2023-02-06T18:11:36.680Z,22.75
2023-02-06T18:14:05.954Z,24.50
2023-02-06T18:16:34.765Z,23.50
2023-02-06T18:19:03.434Z,23.00
2023-02-06T18:21:32.407Z,24.75
2023-02-06T18:24:00.867Z,23.00
2023-02-06T18:26:29.289Z,24.75
2023-02-06T18:28:57.656Z,25.00
2023-02-06T18:31:29.306Z,24.25
2023-02-06T18:33:58.685Z,24.25
2023-02-06T18:36:28.751Z,24.00
2023-02-06T18:38:58.564Z,23.75
2023-02-06T18:41:45.208Z,25.00
2023-02-06T18:44:14.379Z,24.50
2023-02-06T18:46:43.372Z,24.00
2023-02-06T18:49:11.698Z,24.25
2023-02-06T18:51:40.171Z,24.75
2023-02-06T18:54:08.940Z,24.75
2023-02-06T18:56:38.930Z,23.00
2023-02-06T18:59:07.833Z,23.75
2023-02-06T19:01:36.510Z,24.00
2023-02-06T19:04:05.044Z,25.00
2023-02-06T19:06:36.549Z,22.25
2023-02-06T19:09:09.937Z,25.00
2023-02-06T19:11:38.411Z,25.50
2023-02-06T19:14:09.104Z,23.25
2023-02-06T19:16:39.427Z,23.00
2023-02-06T19:19:11.895Z,23.00
2023-02-06T19:21:40.454Z,22.75
2023-02-06T19:24:09.408Z,21.75
2023-02-06T19:26:37.767Z,22.50
2023-02-06T19:29:06.159Z,23.50
2023-02-06T19:31:36.902Z,22.50
2023-02-06T19:34:05.214Z,22.50
2023-02-06T19:36:33.639Z,23.50
2023-02-06T19:39:04.509Z,21.50
2023-02-06T19:41:34.614Z,24.50
2023-02-06T19:44:06.647Z,24.25
2023-02-06T19:46:36.326Z,22.00
2023-02-06T19:49:07.155Z,23.75
2023-02-06T19:51:39.091Z,24.00
2023-02-06T19:54:08.286Z,20.50
2023-02-06T19:56:40.466Z,21.50
2023-02-06T19:59:14.510Z,22.50
2023-02-06T20:01:43.151Z,23.00
2023-02-06T20:04:12.453Z,22.50
2023-02-06T20:06:41.588Z,23.50
2023-02-06T20:09:09.892Z,23.25
2023-02-06T20:11:38.478Z,24.75
2023-02-06T20:14:07.483Z,25.50
2023-02-06T20:16:38.257Z,24.50
2023-02-06T20:19:15.017Z,24.75
2023-02-06T20:21:46.390Z,24.25
2023-02-06T20:24:19.420Z,24.25
2023-02-06T20:26:49.536Z,25.50
2023-02-06T20:29:28.083Z,24.75
2023-02-06T20:31:57.059Z,25.00
2023-02-06T20:34:26.995Z,22.50
2023-02-06T20:36:56.391Z,23.50
2023-02-06T20:39:26.173Z,23.00
2023-02-06T20:41:55.434Z,24.00
2023-02-06T20:44:23.752Z,24.75
2023-02-06T20:46:52.063Z,24.25
2023-02-06T20:49:23.317Z,23.25
2023-02-06T20:51:52.413Z,22.25
2023-02-06T20:54:21.810Z,24.25
2023-02-06T20:56:50.719Z,24.00
2023-02-06T20:59:21.369Z,23.00
2023-02-06T21:01:50.132Z,22.75
2023-02-06T21:04:19.091Z,21.75
2023-02-06T21:06:49.459Z,20.50
2023-02-06T21:09:19.326Z,23.00
2023-02-06T21:11:49.383Z,22.00
2023-02-06T21:14:19.109Z,22.25
2023-02-06T21:16:48.312Z,22.50
2023-02-06T21:19:19.152Z,23.00
2023-02-06T21:21:48.233Z,22.00
2023-02-06T21:24:17.886Z,21.00
2023-02-06T21:26:46.360Z,20.50
2023-02-06T21:29:16.176Z,22.00
2023-02-06T21:31:45.147Z,21.00
2023-02-06T21:34:22.883Z,21.00
2023-02-06T21:36:52.042Z,20.75
2023-02-06T21:39:23.324Z,22.25
2023-02-06T21:41:54.846Z,21.75
2023-02-06T21:44:27.672Z,22.25
2023-02-06T21:46:57.024Z,22.00
2023-02-06T21:49:25.737Z,22.50
2023-02-06T21:51:54.600Z,21.00
2023-02-06T21:54:23.365Z,23.00
2023-02-06T21:56:52.424Z,24.50
2023-02-06T21:59:20.727Z,22.75
2023-02-06T22:01:49.052Z,22.00
2023-02-06T22:04:17.476Z,23.00
2023-02-06T22:06:46.833Z,22.75
2023-02-06T22:09:17.498Z,22.25
2023-02-06T22:11:47.411Z,23.50
2023-02-06T22:14:18.448Z,22.00
2023-02-06T22:16:47.804Z,23.00
2023-02-06T22:19:17.372Z,22.25
2023-02-06T22:21:46.281Z,23.00
2023-02-06T22:24:14.881Z,22.50
2023-02-06T22:26:44.056Z,22.75
2023-02-06T22:29:15.915Z,23.25
2023-02-06T22:31:45.841Z,22.50
2023-02-06T22:34:20.733Z,22.00
2023-02-06T22:36:51.889Z,22.00
2023-02-06T22:39:20.892Z,22.00
2023-02-06T22:41:50.257Z,23.00
2023-02-06T22:44:20.581Z,22.75
2023-02-06T22:46:52.328Z,23.00
2023-02-06T22:49:22.901Z,22.25
2023-02-06T22:51:51.685Z,22.50
2023-02-06T22:54:19.993Z,24.25
2023-02-06T22:56:48.563Z,23.50
2023-02-06T22:59:23.596Z,22.75
2023-02-06T23:01:59.749Z,22.00
2023-02-06T23:04:31.172Z,22.25
2023-02-06T23:06:59.486Z,22.25
2023-02-06T23:09:34.257Z,23.00
2023-02-06T23:12:03.594Z,21.25
2023-02-06T23:14:33.461Z,22.25
2023-02-06T23:17:03.296Z,22.00
2023-02-06T23:19:31.854Z,21.25
2023-02-06T23:22:00.264Z,23.00
2023-02-06T23:24:28.783Z,21.00
2023-02-06T23:26:57.134Z,21.75
2023-02-06T23:29:25.584Z,22.25
2023-02-06T23:31:53.981Z,22.25
2023-02-06T23:34:24.731Z,22.50
2023-02-06T23:36:53.944Z,24.00
2023-02-06T23:39:22.347Z,23.50
2023-02-06T23:41:50.796Z,22.50
2023-02-06T23:44:19.606Z,23.50
2023-02-06T23:46:48.867Z,25.00
2023-02-06T23:49:17.207Z,24.50
2023-02-06T23:51:45.560Z,24.75
2023-02-06T23:54:13.966Z,22.50
2023-02-06T23:56:42.276Z,23.00
2023-02-06T23:59:11.577Z,23.00
